createdAt,value
2023-03-26T00:02:23.922Z,99114.77
2023-03-26T00:04:56.138Z,99113.75
2023-03-26T00:07:28.812Z,99112.84
2023-03-26T00:10:00.996Z,99116.17
2023-03-26T00:12:32.915Z,99113.95
2023-03-26T00:15:05.550Z,99121.25
2023-03-26T00:17:37.896Z,99120.12
2023-03-26T00:20:12.886Z,99116.30
2023-03-26T00:22:45.572Z,99127.63
2023-03-26T00:25:17.776Z,99132.00
2023-03-26T00:27:50.377Z,99127.55
2023-03-26T00:30:22.549Z,99118.78
2023-03-26T00:32:54.816Z,99114.35
2023-03-26T00:35:27.181Z,99114.02
2023-03-26T00:37:59.862Z,99104.29
2023-03-26T00:40:32.044Z,99098.37
2023-03-26T00:43:10.072Z,99090.13
2023-03-26T00:45:42.291Z,99094.20
2023-03-26T00:48:14.692Z,99091.05
2023-03-26T00:50:48.759Z,99089.91
2023-03-26T00:53:20.870Z,99085.70
2023-03-26T00:55:53.494Z,99081.79
2023-03-26T00:58:26.292Z,99075.75
2023-03-26T01:01:01.146Z,99074.18
2023-03-26T01:03:36.791Z,99072.13
2023-03-26T01:06:12.825Z,99070.77
2023-03-26T01:08:47.709Z,99073.98
2023-03-26T01:11:21.687Z,99068.39
2023-03-26T01:13:55.906Z,99069.20
2023-03-26T01:16:32.527Z,99067.92
2023-03-26T01:19:05.852Z,99069.06
2023-03-26T01:21:38.687Z,99074.58
2023-03-26T01:24:12.070Z,99073.65
2023-03-26T01:27:24.426Z,99072.43
2023-03-26T01:30:05.008Z,99071.25
2023-03-26T01:32:59.534Z,99071.00
2023-03-26T01:35:48.626Z,99066.93
2023-03-26T01:38:29.636Z,99069.23
2023-03-26T01:41:07.808Z,99069.37
2023-03-26T01:43:47.372Z,99071.77
2023-03-26T01:46:21.986Z,99069.02
2023-03-26T01:48:55.415Z,99073.63
2023-03-26T01:51:33.267Z,99070.77
2023-03-26T01:54:09.955Z,99068.23
2023-03-26T01:56:49.734Z,99059.84
2023-03-26T01:59:37.677Z,99060.71
2023-03-26T02:02:13.911Z,99059.86
2023-03-26T02:04:53.991Z,99057.11
2023-03-26T02:07:35.247Z,99053.40
2023-03-26T02:10:13.771Z,99055.56
2023-03-26T02:12:46.894Z,99052.83
2023-03-26T02:15:19.453Z,99057.73
2023-03-26T02:17:52.500Z,99057.17
2023-03-26T02:20:25.724Z,99052.95
2023-03-26T02:22:58.027Z,99053.90
2023-03-26T02:25:29.030Z,99049.06
2023-03-26T02:28:03.524Z,99048.41
2023-03-26T02:30:35.698Z,99048.06
2023-03-26T02:33:08.065Z,99047.29
2023-03-26T02:35:46.107Z,99044.13
2023-03-26T02:38:19.625Z,99050.20
2023-03-26T02:40:51.522Z,99050.14
2023-03-26T02:43:25.190Z,99046.58
2023-03-26T02:45:57.511Z,99039.75
2023-03-26T02:48:58.845Z,99042.61
2023-03-26T02:51:29.599Z,99044.25
2023-03-26T02:54:07.830Z,99042.78
2023-03-26T02:56:58.573Z,99041.73
2023-03-26T02:59:46.947Z,99043.59
2023-03-26T03:02:44.457Z,99040.46
2023-03-26T03:05:38.049Z,99040.77
2023-03-26T03:08:30.966Z,99037.73
2023-03-26T03:11:24.725Z,99041.07
2023-03-26T03:13:57.490Z,99039.09
2023-03-26T03:16:34.637Z,99042.67
2023-03-26T03:19:13.678Z,99039.64
2023-03-26T03:21:46.178Z,99041.92
2023-03-26T03:24:19.023Z,99036.84
2023-03-26T03:26:57.939Z,99042.97
2023-03-26T03:29:41.432Z,99044.84
2023-03-26T03:32:34.196Z,99047.08
2023-03-26T03:35:10.099Z,99050.75
2023-03-26T03:37:42.650Z,99048.38
2023-03-26T03:40:15.158Z,99052.20
2023-03-26T03:42:46.753Z,99053.48
2023-03-26T03:45:20.339Z,99051.63
2023-03-26T03:48:01.502Z,99052.71
2023-03-26T03:50:40.546Z,99051.10
2023-03-26T03:53:27.009Z,99054.98
2023-03-26T03:56:01.960Z,99055.80
2023-03-26T03:58:53.394Z,99056.66
2023-03-26T04:01:33.028Z,99054.15
2023-03-26T04:04:28.041Z,99052.38
2023-03-26T04:07:06.427Z,99054.81
2023-03-26T04:09:57.305Z,99057.52
2023-03-26T04:12:31.994Z,99055.36
2023-03-26T04:15:10.224Z,99052.89
2023-03-26T04:17:44.070Z,99052.71
2023-03-26T04:20:16.935Z,99051.39
2023-03-26T04:22:49.900Z,99057.11
2023-03-26T04:25:23.029Z,99052.89
2023-03-26T04:28:10.576Z,99052.63
2023-03-26T04:30:57.213Z,99053.52
2023-03-26T04:33:39.166Z,99050.80
2023-03-26T04:36:12.573Z,99051.84
2023-03-26T04:38:49.115Z,99059.13
2023-03-26T04:41:26.448Z,99054.10
2023-03-26T04:44:02.929Z,99056.70
2023-03-26T04:46:43.782Z,99052.21
2023-03-26T04:49:24.343Z,99051.44
2023-03-26T04:51:56.816Z,99048.66
2023-03-26T04:54:48.702Z,99052.20
2023-03-26T04:57:26.516Z,99052.73
2023-03-26T05:00:19.263Z,99052.72
2023-03-26T05:02:57.862Z,99049.02
2023-03-26T05:05:30.859Z,99052.29
2023-03-26T05:08:03.870Z,99049.95
2023-03-26T05:10:36.382Z,99046.13
2023-03-26T05:13:10.998Z,99050.73
2023-03-26T05:15:45.441Z,99048.61
2023-03-26T05:18:23.560Z,99054.13
2023-03-26T05:20:58.012Z,99051.77
2023-03-26T05:23:31.041Z,99051.95
2023-03-26T05:26:22.769Z,99054.46
2023-03-26T05:28:54.796Z,99052.58
2023-03-26T05:31:30.756Z,99056.55
2023-03-26T05:34:03.335Z,99058.41
2023-03-26T05:36:35.604Z,99053.17
2023-03-26T05:39:33.511Z,99055.35
2023-03-26T05:42:25.675Z,99058.55
2023-03-26T05:45:22.514Z,99066.32
2023-03-26T05:47:56.541Z,99066.66
2023-03-26T05:50:29.806Z,99066.54
2023-03-26T05:53:05.236Z,99069.40
2023-03-26T05:55:58.073Z,99078.18
2023-03-26T05:58:59.821Z,99078.15
2023-03-26T06:01:34.511Z,99083.05
2023-03-26T06:04:25.044Z,99083.75
2023-03-26T06:07:16.870Z,99089.20
2023-03-26T06:09:53.432Z,99093.12
2023-03-26T06:12:24.428Z,99091.41
2023-03-26T06:14:56.866Z,99091.91
2023-03-26T06:17:38.798Z,99095.15
2023-03-26T06:20:19.494Z,99095.50
2023-03-26T06:22:54.041Z,99099.86
2023-03-26T06:25:30.045Z,99100.48
2023-03-26T06:28:12.735Z,99103.39
2023-03-26T06:31:10.940Z,99101.99
2023-03-26T06:33:48.675Z,99098.17
2023-03-26T06:36:19.842Z,99106.89
2023-03-26T06:38:54.405Z,99112.42
2023-03-26T06:41:26.541Z,99111.24
2023-03-26T06:44:06.256Z,99111.38
2023-03-26T06:47:13.168Z,99107.72
2023-03-26T06:50:20.965Z,99111.90
2023-03-26T06:53:05.502Z,99113.73
2023-03-26T06:56:03.225Z,99117.71
2023-03-26T06:59:03.576Z,99120.98
2023-03-26T07:02:02.009Z,99127.15
2023-03-26T07:05:07.001Z,99136.23
2023-03-26T07:07:57.664Z,99122.65
2023-03-26T07:10:49.161Z,99127.15
2023-03-26T07:13:56.232Z,99135.20
2023-03-26T07:16:49.772Z,99133.54
2023-03-26T07:19:41.973Z,99132.75
2023-03-26T07:22:21.151Z,99133.46
2023-03-26T07:25:21.342Z,99142.83
2023-03-26T07:28:40.135Z,99141.15
2023-03-26T07:31:28.378Z,99144.73
2023-03-26T07:34:32.916Z,99148.09
2023-03-26T07:37:45.227Z,99147.13
2023-03-26T07:40:58.562Z,99151.11
2023-03-26T07:43:52.119Z,99146.46
2023-03-26T07:46:48.139Z,99148.19
2023-03-26T07:49:43.418Z,99149.02
2023-03-26T07:52:22.349Z,99147.66
2023-03-26T07:55:19.100Z,99151.38
2023-03-26T07:58:24.232Z,99148.94
2023-03-26T08:01:43.976Z,99154.83
2023-03-26T08:04:56.991Z,99153.89
2023-03-26T08:08:16.499Z,99154.97
2023-03-26T08:11:14.314Z,99153.48
2023-03-26T08:14:06.762Z,99146.63
2023-03-26T08:16:47.920Z,99148.48
2023-03-26T08:19:40.866Z,99160.15
2023-03-26T08:22:15.664Z,99154.80
2023-03-26T08:25:01.280Z,99144.70
2023-03-26T08:27:40.273Z,99145.02
2023-03-26T08:30:19.137Z,99149.21
2023-03-26T08:32:58.596Z,99148.20
2023-03-26T08:35:31.109Z,99152.16
2023-03-26T08:38:02.108Z,99145.41
2023-03-26T08:41:02.100Z,99145.66
2023-03-26T08:43:58.274Z,99141.41
2023-03-26T08:46:49.177Z,99135.80
2023-03-26T08:50:10.113Z,99138.99
2023-03-26T08:53:10.305Z,99147.61
2023-03-26T08:55:53.518Z,99152.23
2023-03-26T08:59:00.358Z,99149.25
2023-03-26T09:01:49.768Z,99140.70
2023-03-26T09:04:59.596Z,99139.36
2023-03-26T09:07:59.666Z,99139.14
2023-03-26T09:11:02.880Z,99144.31
2023-03-26T09:13:59.319Z,99134.65
2023-03-26T09:16:56.129Z,99147.23
2023-03-26T09:19:57.036Z,99141.81
2023-03-26T09:22:49.451Z,99141.67
2023-03-26T09:25:50.852Z,99148.86
2023-03-26T09:28:51.316Z,99152.80
2023-03-26T09:32:02.502Z,99153.20
2023-03-26T09:34:44.906Z,99149.82
2023-03-26T09:37:26.019Z,99151.67
2023-03-26T09:40:15.486Z,99151.59
2023-03-26T09:42:54.402Z,99149.86
2023-03-26T09:45:48.939Z,99148.25
2023-03-26T09:48:42.079Z,99146.59
2023-03-26T09:51:36.934Z,99150.70
2023-03-26T09:54:37.292Z,99145.38
2023-03-26T09:57:18.872Z,99147.23
2023-03-26T10:00:09.988Z,99134.98
2023-03-26T10:03:01.404Z,99141.06
2023-03-26T10:05:46.174Z,99144.80
2023-03-26T10:08:41.326Z,99147.78
2023-03-26T10:11:20.315Z,99143.13
2023-03-26T10:14:05.377Z,99145.48
2023-03-26T10:16:49.205Z,99143.14
2023-03-26T10:19:34.626Z,99150.17
2023-03-26T10:22:17.678Z,99155.84
2023-03-26T10:25:07.130Z,99166.31
2023-03-26T10:27:50.676Z,99159.40
2023-03-26T10:30:45.910Z,99158.70
2023-03-26T10:33:31.784Z,99155.98
2023-03-26T10:36:25.788Z,99153.02
2023-03-26T10:39:35.992Z,99155.73
2023-03-26T10:42:34.097Z,99154.95
2023-03-26T10:45:25.606Z,99152.47
2023-03-26T10:48:22.681Z,99153.57
2023-03-26T10:51:08.958Z,99153.20
2023-03-26T10:53:48.108Z,99158.41
2023-03-26T10:56:26.561Z,99155.59
2023-03-26T10:59:04.099Z,99164.30
2023-03-26T11:01:48.073Z,99159.81
2023-03-26T11:04:32.051Z,99160.25
2023-03-26T11:07:19.906Z,99158.09
2023-03-26T11:10:02.782Z,99152.17
2023-03-26T11:12:43.095Z,99151.13
2023-03-26T11:15:24.572Z,99155.17
2023-03-26T11:18:07.052Z,99151.77
2023-03-26T11:20:48.699Z,99151.96
2023-03-26T11:23:34.519Z,99146.69
2023-03-26T11:26:13.017Z,99148.66
2023-03-26T11:29:32.393Z,99145.95
2023-03-26T11:32:06.126Z,99146.08
2023-03-26T11:34:41.704Z,99142.39
2023-03-26T11:37:21.701Z,99150.02
2023-03-26T11:39:57.691Z,99137.23
2023-03-26T11:42:30.859Z,99141.09
2023-03-26T11:45:08.599Z,99136.27
2023-03-26T11:47:45.760Z,99131.98
2023-03-26T11:50:23.017Z,99136.58
2023-03-26T11:52:58.583Z,99130.04
2023-03-26T11:55:33.575Z,99137.14
2023-03-26T11:58:16.512Z,99131.46
2023-03-26T12:00:48.749Z,99129.00
2023-03-26T12:03:22.014Z,99134.31
2023-03-26T12:05:59.520Z,99128.63
2023-03-26T12:08:35.219Z,99136.72
2023-03-26T12:11:13.236Z,99137.94
2023-03-26T12:13:52.559Z,99160.16
2023-03-26T12:16:25.273Z,99162.23
2023-03-26T12:19:07.375Z,99164.36
2023-03-26T12:21:49.612Z,99160.63
2023-03-26T12:24:33.627Z,99155.77
2023-03-26T12:27:28.507Z,99154.99
2023-03-26T12:30:20.814Z,99147.12
2023-03-26T12:32:57.132Z,99153.42
2023-03-26T12:35:30.839Z,99151.21
2023-03-26T12:38:28.985Z,99148.50
2023-03-26T12:42:52.721Z,99143.98
2023-03-26T12:44:54.711Z,99138.14
2023-03-26T12:47:57.154Z,99134.02
2023-03-26T12:50:18.343Z,99128.73
2023-03-26T12:53:22.785Z,99121.97
2023-03-26T12:56:05.244Z,99110.35
2023-03-26T12:58:53.501Z,99102.46
2023-03-26T13:01:35.488Z,99096.36
2023-03-26T13:04:38.679Z,99091.16
2023-03-26T13:07:18.412Z,99088.05
2023-03-26T13:10:00.764Z,99089.38
2023-03-26T13:12:41.870Z,99089.45
2023-03-26T13:15:27.316Z,99085.39
2023-03-26T13:18:16.282Z,99092.73
2023-03-26T13:20:56.977Z,99090.62
2023-03-26T13:23:40.797Z,99090.42
2023-03-26T13:26:27.555Z,99092.59
2023-03-26T13:29:08.049Z,99093.00
2023-03-26T13:31:49.057Z,99092.71
2023-03-26T13:34:30.917Z,99094.85
2023-03-26T13:37:12.936Z,99090.10
2023-03-26T13:39:55.006Z,99091.09
2023-03-26T13:42:39.436Z,99093.66
2023-03-26T13:45:24.605Z,99091.88
2023-03-26T13:48:00.423Z,99094.92
2023-03-26T13:50:35.000Z,99094.45
2023-03-26T13:53:12.683Z,99098.85
2023-03-26T13:55:48.684Z,99099.26
2023-03-26T13:58:34.357Z,99091.58
2023-03-26T14:01:11.237Z,99091.61
2023-03-26T14:03:53.189Z,99090.71
2023-03-26T14:06:42.032Z,99091.30
2023-03-26T14:09:20.137Z,99090.92
2023-03-26T14:12:21.191Z,99091.92
2023-03-26T14:15:00.651Z,99093.75
2023-03-26T14:17:39.643Z,99096.40
2023-03-26T14:20:53.608Z,99094.40
2023-03-26T14:23:49.928Z,99091.16
2023-03-26T14:26:37.433Z,99096.86
2023-03-26T14:29:32.620Z,99098.52
2023-03-26T14:32:24.425Z,99100.27
2023-03-26T14:35:21.716Z,99096.48
2023-03-26T14:38:23.868Z,99100.32
2023-03-26T14:41:03.098Z,99108.02
2023-03-26T14:44:09.903Z,99107.97
2023-03-26T14:47:04.682Z,99106.70
2023-03-26T14:49:55.724Z,99100.52
2023-03-26T14:52:40.575Z,99096.39
2023-03-26T14:55:20.830Z,99103.90
2023-03-26T14:58:07.486Z,99099.00
2023-03-26T15:01:25.578Z,99102.41
2023-03-26T15:04:33.557Z,99104.46
2023-03-26T15:07:38.344Z,99105.36
2023-03-26T15:10:49.634Z,99103.21
2023-03-26T15:13:50.079Z,99107.33
2023-03-26T15:16:55.286Z,99104.69
2023-03-26T15:19:56.064Z,99108.19
2023-03-26T15:22:59.441Z,99111.90
2023-03-26T15:26:03.203Z,99111.36
2023-03-26T15:28:49.641Z,99103.25
2023-03-26T15:31:40.012Z,99109.38
2023-03-26T15:34:43.868Z,99105.18
2023-03-26T15:40:58.062Z,99101.02
2023-03-26T15:44:23.955Z,99097.59
2023-03-26T15:47:00.372Z,99088.78
2023-03-26T15:49:43.374Z,99093.90
2023-03-26T15:52:22.015Z,99096.08
2023-03-26T15:55:01.303Z,99098.30
2023-03-26T15:57:39.114Z,99096.88
2023-03-26T16:00:24.458Z,99096.47
2023-03-26T16:03:21.564Z,99097.15
2023-03-26T16:06:15.862Z,99094.46
2023-03-26T16:08:57.366Z,99099.38
2023-03-26T16:11:55.701Z,99102.38
2023-03-26T16:14:45.007Z,99094.69
2023-03-26T16:17:21.168Z,99093.96
2023-03-26T16:20:19.544Z,99094.50
2023-03-26T16:23:01.699Z,99085.69
2023-03-26T16:25:36.247Z,99074.10
2023-03-26T16:28:32.622Z,99076.33
2023-03-26T16:31:37.891Z,99074.84
2023-03-26T16:34:30.132Z,99076.30
2023-03-26T16:37:09.072Z,99079.95
2023-03-26T16:39:45.745Z,99081.95
2023-03-26T16:42:34.759Z,99088.25
2023-03-26T16:45:23.148Z,99089.89
2023-03-26T16:48:10.106Z,99085.73
2023-03-26T16:50:52.285Z,99084.65
2023-03-26T16:53:38.530Z,99080.23
2023-03-26T16:56:18.073Z,99078.61
2023-03-26T16:58:58.746Z,99080.39
2023-03-26T17:01:42.916Z,99071.39
2023-03-26T17:04:20.728Z,99072.83
2023-03-26T17:07:15.022Z,99076.95
2023-03-26T17:10:00.584Z,99079.19
2023-03-26T17:12:40.481Z,99076.75
2023-03-26T17:15:26.754Z,99076.71
2023-03-26T17:18:13.630Z,99082.33
2023-03-26T17:20:59.812Z,99081.64
2023-03-26T17:23:44.654Z,99082.02
2023-03-26T17:26:29.350Z,99085.88
2023-03-26T17:29:13.460Z,99080.37
2023-03-26T17:31:54.473Z,99079.77
2023-03-26T17:35:00.611Z,99075.61
2023-03-26T17:37:40.916Z,99083.80
2023-03-26T17:40:55.513Z,99084.32
2023-03-26T17:43:46.199Z,99084.36
2023-03-26T17:46:38.997Z,99080.80
2023-03-26T17:49:19.224Z,99085.52
2023-03-26T17:51:55.202Z,99083.73
2023-03-26T17:54:32.600Z,99081.92
2023-03-26T17:57:08.405Z,99081.71
2023-03-26T17:59:44.271Z,99080.44
2023-03-26T18:02:19.726Z,99081.28
2023-03-26T18:04:55.504Z,99083.48
2023-03-26T18:07:57.223Z,99081.17
2023-03-26T18:10:53.961Z,99087.30
2023-03-26T18:13:53.798Z,99089.66
2023-03-26T18:16:30.255Z,99094.98
2023-03-26T18:19:05.518Z,99093.05
2023-03-26T18:21:40.306Z,99097.29
2023-03-26T18:24:19.359Z,99098.18
2023-03-26T18:26:56.163Z,99094.29
2023-03-26T18:29:30.776Z,99095.92
2023-03-26T18:32:04.311Z,99096.46
2023-03-26T18:34:39.738Z,99095.89
2023-03-26T18:37:21.557Z,99098.41
2023-03-26T18:40:12.386Z,99097.49
2023-03-26T18:42:49.427Z,99094.86
2023-03-26T18:45:30.801Z,99099.23
2023-03-26T18:48:07.387Z,99095.52
2023-03-26T18:50:43.113Z,99093.95
2023-03-26T18:53:21.349Z,99093.09
2023-03-26T18:55:55.082Z,99094.09
2023-03-26T18:58:30.172Z,99092.04
2023-03-26T19:01:05.113Z,99089.38
2023-03-26T19:03:43.957Z,99084.94
2023-03-26T19:06:17.896Z,99087.08
2023-03-26T19:08:51.073Z,99087.02
2023-03-26T19:11:23.291Z,99088.09
2023-03-26T19:14:08.017Z,99085.20
2023-03-26T19:16:43.657Z,99084.58
2023-03-26T19:19:23.018Z,99088.23
2023-03-26T19:21:58.365Z,99087.86
2023-03-26T19:24:32.006Z,99084.36
2023-03-26T19:27:04.112Z,99080.42
2023-03-26T19:29:37.557Z,99083.55
2023-03-26T19:32:20.007Z,99084.16
2023-03-26T19:34:53.344Z,99085.48
2023-03-26T19:37:30.023Z,99080.89
2023-03-26T19:40:14.421Z,99075.34
2023-03-26T19:42:47.450Z,99072.88
2023-03-26T19:45:23.228Z,99071.56
2023-03-26T19:48:07.749Z,99068.39
2023-03-26T19:50:56.772Z,99068.30
2023-03-26T19:53:34.858Z,99066.60
2023-03-26T19:56:18.447Z,99065.84
2023-03-26T19:58:51.418Z,99069.02
2023-03-26T20:01:26.720Z,99069.56
2023-03-26T20:04:01.989Z,99067.07
2023-03-26T20:06:43.101Z,99065.67
2023-03-26T20:09:16.752Z,99066.94
2023-03-26T20:11:49.664Z,99063.47
2023-03-26T20:14:26.130Z,99066.39
2023-03-26T20:16:58.568Z,99063.99
2023-03-26T20:19:31.261Z,99061.45
2023-03-26T20:22:01.968Z,99061.17
2023-03-26T20:24:35.424Z,99063.80
2023-03-26T20:27:07.394Z,99062.77
2023-03-26T20:29:40.087Z,99057.69
2023-03-26T20:32:23.667Z,99057.13
2023-03-26T20:34:57.776Z,99056.65
2023-03-26T20:37:29.748Z,99060.83
2023-03-26T20:40:01.566Z,99058.58
2023-03-26T20:42:36.295Z,99053.27
2023-03-26T20:45:18.602Z,99056.08
2023-03-26T20:47:51.639Z,99055.57
2023-03-26T20:50:26.774Z,99051.84
2023-03-26T20:52:59.781Z,99053.92
2023-03-26T20:55:32.691Z,99056.95
2023-03-26T20:58:04.732Z,99054.85
2023-03-26T21:00:37.265Z,99056.88
2023-03-26T21:03:13.031Z,99057.30
2023-03-26T21:05:48.394Z,99061.17
2023-03-26T21:08:29.956Z,99065.44
2023-03-26T21:11:03.011Z,99065.17
2023-03-26T21:13:41.211Z,99057.69
2023-03-26T21:16:14.887Z,99068.66
2023-03-26T21:18:49.997Z,99073.54
2023-03-26T21:21:34.375Z,99077.77
2023-03-26T21:24:15.743Z,99080.89
2023-03-26T21:26:55.442Z,99083.29
2023-03-26T21:29:28.180Z,99088.39
2023-03-26T21:31:58.970Z,99083.79
2023-03-26T21:34:32.876Z,99079.17
2023-03-26T21:37:09.167Z,99080.14
2023-03-26T21:39:44.847Z,99079.14
2023-03-26T21:42:17.826Z,99075.31
2023-03-26T21:44:50.597Z,99074.86
2023-03-26T21:47:21.395Z,99076.20
2023-03-26T21:49:54.663Z,99075.31
2023-03-26T21:52:28.075Z,99078.95
2023-03-26T21:55:01.391Z,99074.14
2023-03-26T21:57:54.876Z,99073.17
2023-03-26T22:00:41.147Z,99074.13
2023-03-26T22:03:29.511Z,99075.20
2023-03-26T22:06:07.915Z,99078.30
2023-03-26T22:08:42.083Z,99080.69
2023-03-26T22:11:14.302Z,99077.48
2023-03-26T22:13:47.189Z,99080.41
2023-03-26T22:16:19.219Z,99083.65
2023-03-26T22:18:51.094Z,99085.50
2023-03-26T22:21:23.551Z,99089.16
2023-03-26T22:23:55.620Z,99089.40
2023-03-26T22:26:27.567Z,99089.16
2023-03-26T22:28:59.618Z,99094.08
2023-03-26T22:31:31.453Z,99097.40
2023-03-26T22:34:03.362Z,99096.11
2023-03-26T22:36:35.818Z,99102.98
2023-03-26T22:39:08.627Z,99106.99
2023-03-26T22:41:40.640Z,99110.81
2023-03-26T22:44:19.848Z,99112.33
2023-03-26T22:46:54.397Z,99115.03
2023-03-26T22:49:30.100Z,99115.16
2023-03-26T22:52:02.129Z,99114.06
2023-03-26T22:54:34.404Z,99112.80
2023-03-26T22:57:06.446Z,99110.98
2023-03-26T22:59:38.441Z,99105.82
2023-03-26T23:02:12.420Z,99108.95
2023-03-26T23:04:46.301Z,99104.14
2023-03-26T23:07:18.472Z,99104.46
2023-03-26T23:09:50.539Z,99100.67
2023-03-26T23:12:22.347Z,99101.01
2023-03-26T23:14:54.414Z,99098.77
2023-03-26T23:17:27.146Z,99096.27
2023-03-26T23:20:00.528Z,99097.94
2023-03-26T23:22:32.763Z,99101.58
2023-03-26T23:25:04.738Z,99105.89
2023-03-26T23:27:36.791Z,99115.80
2023-03-26T23:30:11.826Z,99123.95
2023-03-26T23:32:43.973Z,99134.08
2023-03-26T23:35:16.036Z,99137.14
2023-03-26T23:37:50.758Z,99143.64
2023-03-26T23:40:22.925Z,99145.62
2023-03-26T23:42:54.930Z,99149.15
2023-03-26T23:45:27.284Z,99147.84
2023-03-26T23:47:59.280Z,99151.66
2023-03-26T23:50:31.524Z,99155.73
2023-03-26T23:53:03.484Z,99161.95
2023-03-26T23:55:36.512Z,99164.44
2023-03-26T23:58:08.946Z,99163.75
